Level Plains, Alabama
Current Conditions -  °F | °C
As of 8:58 AM on Friday 19 Dec 2014 (Local Time) from KOZR Reporting Station
Scattered Clouds Scattered Clouds  
Wind Chill: 47°   Ceiling: Unl
Heat Index: 49°   Visibility: 10mi
Dew Point: 34°   Wind: 6mph
Humidity: 56%   Direction: 350°N
Pressure: 30.2"   Gusts: NA
Location:  31.2347°N, 85.7586°W
Report Text: KOZR 191458Z AUTO 35005KT 10SM FEW180 SCT210 09/01 A3020 RMK AO2 SLP229 T00940011 53020
Loading
Personal Weather Stations






























Interactive Weather Map New forecast layout! Learn more

10-Day Weather Forecast

Advertisements
Track Severe Weather on mobile